createdAt,value
2022-11-30T00:00:42.911Z,7.12
2022-11-30T00:04:21.997Z,6.22
2022-11-30T00:07:58.520Z,6.90
2022-11-30T00:16:17.779Z,5.15
2022-11-30T00:19:55.725Z,6.80
2022-11-30T00:23:36.095Z,6.72
2022-11-30T00:27:17.489Z,6.25
2022-11-30T00:30:39.597Z,6.30
2022-11-30T00:34:16.440Z,6.28
2022-11-30T00:37:56.012Z,6.60
2022-11-30T00:41:19.554Z,6.72
2022-11-30T00:45:01.165Z,4.87
2022-11-30T00:48:41.370Z,6.15
2022-11-30T00:56:28.646Z,6.65
2022-11-30T00:59:49.104Z,5.78
2022-11-30T01:03:23.907Z,7.25
2022-11-30T01:06:56.494Z,5.47
2022-11-30T01:10:16.281Z,7.82
2022-11-30T01:18:27.211Z,5.80
2022-11-30T01:22:17.474Z,4.55
2022-11-30T01:26:00.384Z,6.62
2022-11-30T01:29:35.409Z,5.60
2022-11-30T01:32:56.307Z,4.53
2022-11-30T01:36:57.871Z,6.05
2022-11-30T01:40:22.568Z,5.28
2022-11-30T01:44:20.490Z,6.55
2022-11-30T01:48:03.251Z,5.32
2022-11-30T01:51:55.500Z,4.07
2022-11-30T01:55:32.494Z,5.37
2022-11-30T01:59:10.352Z,5.18
2022-11-30T02:06:29.416Z,4.55
2022-11-30T02:10:09.906Z,5.53
2022-11-30T02:14:26.505Z,5.85
2022-11-30T02:18:16.615Z,4.43
2022-11-30T02:22:26.171Z,4.78
2022-11-30T02:26:27.244Z,6.35
2022-11-30T02:30:15.496Z,4.72
2022-11-30T02:33:55.502Z,4.53
2022-11-30T02:37:35.197Z,3.97
2022-11-30T02:41:17.395Z,5.53
2022-11-30T02:44:49.850Z,3.97
2022-11-30T02:48:51.503Z,5.97
2022-11-30T02:55:53.754Z,4.87
2022-11-30T02:59:24.399Z,4.82
2022-11-30T03:02:45.364Z,4.93
2022-11-30T03:06:13.698Z,5.68
2022-11-30T03:10:01.004Z,4.75
2022-11-30T03:13:46.729Z,4.65
2022-11-30T03:17:24.431Z,5.12
2022-11-30T03:20:46.778Z,4.82
2022-11-30T03:24:31.894Z,4.45
2022-11-30T03:28:05.210Z,5.68
2022-11-30T03:31:36.488Z,4.90
2022-11-30T03:35:13.034Z,4.43
2022-11-30T03:38:53.261Z,4.68
2022-11-30T03:46:03.297Z,4.35
2022-11-30T03:49:21.649Z,4.82
2022-11-30T03:52:42.565Z,5.07
2022-11-30T03:56:11.924Z,5.15
2022-11-30T03:59:35.816Z,4.15
2022-11-30T04:03:16.992Z,5.15
2022-11-30T04:10:30.295Z,4.10
2022-11-30T04:13:48.969Z,4.07
2022-11-30T04:17:22.487Z,4.22
2022-11-30T04:20:44.358Z,4.68
2022-11-30T04:24:08.987Z,4.95
2022-11-30T04:27:37.000Z,4.85
2022-11-30T04:31:09.548Z,4.87
2022-11-30T04:34:33.835Z,3.33
2022-11-30T04:41:40.835Z,4.10
2022-11-30T04:45:17.072Z,5.20
2022-11-30T04:48:54.159Z,4.50
2022-11-30T04:52:11.602Z,4.18
2022-11-30T04:55:28.799Z,5.50
2022-11-30T04:59:05.078Z,4.30
2022-11-30T05:02:50.687Z,3.45
2022-11-30T05:10:40.628Z,4.12
2022-11-30T05:13:58.274Z,4.05
2022-11-30T05:21:06.240Z,3.80
2022-11-30T05:24:28.341Z,3.55
2022-11-30T05:27:52.275Z,3.80
2022-11-30T05:31:27.762Z,4.03
2022-11-30T05:35:07.600Z,4.40
2022-11-30T05:38:37.070Z,5.22
2022-11-30T05:45:51.288Z,4.15
2022-11-30T05:49:22.555Z,4.20
2022-11-30T05:53:01.368Z,4.30
2022-11-30T05:56:22.319Z,4.87
2022-11-30T05:59:56.579Z,4.55
2022-11-30T06:03:31.869Z,5.20
2022-11-30T06:07:21.254Z,4.28
2022-11-30T06:14:36.569Z,4.85
2022-11-30T06:18:02.684Z,3.92
2022-11-30T06:22:15.422Z,3.65
2022-11-30T06:25:44.797Z,4.90
2022-11-30T06:33:01.361Z,3.20
2022-11-30T06:36:32.695Z,3.53
2022-11-30T06:40:08.042Z,3.97
2022-11-30T08:21:44.823Z,3.00
2022-11-30T08:37:03.231Z,3.40
2022-11-30T08:43:58.378Z,3.72
2022-11-30T08:47:19.460Z,3.47
2022-11-30T08:51:04.350Z,4.07
2022-11-30T08:54:41.539Z,3.72
2022-11-30T08:57:59.655Z,3.30
2022-11-30T09:01:32.916Z,4.22
2022-11-30T09:05:03.721Z,3.40
2022-11-30T09:08:22.453Z,3.40
2022-11-30T09:11:58.604Z,3.10
2022-11-30T09:15:30.722Z,4.00
2022-11-30T09:18:56.489Z,4.00
2022-11-30T09:22:36.651Z,3.90
2022-11-30T09:26:12.133Z,3.97
2022-11-30T09:29:45.091Z,5.18
2022-11-30T09:37:02.407Z,3.20
2022-11-30T09:41:09.544Z,3.58
2022-11-30T09:44:53.381Z,3.12
2022-11-30T09:48:52.988Z,3.87
2022-11-30T09:52:58.603Z,2.80
2022-11-30T09:56:37.904Z,3.50
2022-11-30T10:00:32.388Z,3.83
2022-11-30T10:04:34.264Z,3.33
2022-11-30T10:08:27.106Z,3.67
2022-11-30T10:12:36.731Z,3.55
2022-11-30T10:16:26.777Z,3.60
2022-11-30T10:20:19.561Z,3.87
2022-11-30T10:24:30.521Z,3.83
2022-11-30T10:28:45.607Z,3.20
2022-11-30T10:32:04.401Z,3.92
2022-11-30T10:36:16.221Z,2.55
2022-11-30T10:40:24.392Z,1.83
2022-11-30T10:44:46.060Z,3.15
2022-11-30T10:48:58.643Z,1.92
2022-11-30T11:01:05.598Z,2.12
2022-11-30T11:04:46.387Z,1.77
2022-11-30T11:12:32.429Z,2.08
2022-11-30T11:16:28.118Z,1.80
2022-11-30T11:24:29.137Z,1.60
2022-11-30T11:31:56.689Z,1.42
2022-11-30T11:39:43.711Z,1.67
2022-11-30T11:43:18.189Z,1.92
2022-11-30T11:47:08.406Z,2.22
2022-11-30T11:51:07.477Z,1.60
2022-11-30T11:54:51.468Z,1.80
2022-11-30T11:58:26.220Z,2.22
2022-11-30T12:10:50.167Z,1.95
2022-11-30T12:14:15.227Z,1.50
2022-11-30T12:18:24.381Z,1.83
2022-11-30T12:22:28.936Z,1.90
2022-11-30T12:26:42.429Z,1.87
2022-11-30T12:38:43.556Z,1.73
2022-11-30T12:55:01.386Z,1.95
2022-11-30T12:59:14.584Z,1.95
2022-11-30T13:07:10.135Z,2.58
2022-11-30T13:35:33.176Z,1.73
2022-11-30T13:39:48.494Z,2.33
2022-11-30T13:43:27.574Z,1.30
2022-11-30T13:47:31.693Z,1.80
2022-11-30T13:58:18.443Z,1.10
2022-11-30T15:04:05.682Z,3.53
2022-11-30T15:20:44.428Z,2.45
2022-11-30T15:35:06.262Z,2.20
2022-11-30T15:38:42.306Z,2.08
2022-11-30T15:42:25.883Z,2.37
2022-11-30T15:45:58.747Z,2.05
2022-11-30T15:49:36.753Z,2.35
2022-11-30T15:53:22.628Z,4.05
2022-11-30T15:57:09.015Z,3.10
2022-11-30T16:23:37.523Z,3.55
2022-11-30T16:27:39.412Z,4.43
2022-11-30T16:31:23.097Z,3.67
2022-11-30T16:35:43.461Z,2.85
2022-11-30T16:39:14.376Z,2.85
2022-11-30T16:42:48.994Z,2.53
2022-11-30T16:46:31.675Z,3.62
2022-11-30T16:53:52.214Z,2.15
2022-11-30T16:57:28.917Z,3.35
2022-11-30T17:04:50.839Z,2.42
2022-11-30T17:08:40.695Z,2.47
2022-11-30T17:12:31.600Z,2.97
2022-11-30T17:16:22.220Z,3.55
2022-11-30T17:20:21.524Z,3.78
2022-11-30T17:23:50.528Z,3.75
2022-11-30T17:31:12.459Z,2.65
2022-11-30T17:31:42.312Z,3.70
2022-11-30T17:35:27.937Z,4.97
2022-11-30T17:39:10.123Z,8.30
2022-11-30T17:43:28.364Z,6.57
2022-11-30T17:54:34.023Z,5.05
2022-11-30T18:01:55.467Z,5.78
2022-11-30T18:05:34.440Z,6.37
2022-11-30T18:09:05.756Z,5.90
2022-11-30T18:12:48.015Z,5.18
2022-11-30T18:16:38.964Z,4.97
2022-11-30T18:20:18.735Z,3.10
2022-11-30T18:23:40.508Z,3.97
2022-11-30T18:31:19.406Z,4.78
2022-11-30T18:34:56.957Z,4.10
2022-11-30T18:38:37.852Z,4.50
2022-11-30T18:42:08.390Z,3.65
2022-11-30T18:45:42.171Z,4.25
2022-11-30T18:49:30.210Z,5.00
2022-11-30T18:53:15.214Z,4.80
2022-11-30T18:56:32.923Z,4.30
2022-11-30T18:59:56.385Z,5.03
2022-11-30T19:03:28.896Z,5.43
2022-11-30T19:11:05.082Z,6.43
2022-11-30T19:14:27.865Z,5.30
2022-11-30T19:21:49.447Z,6.53
2022-11-30T19:25:44.117Z,6.65
2022-11-30T19:29:17.777Z,6.62
2022-11-30T19:32:41.618Z,6.05
2022-11-30T19:36:16.825Z,8.23
2022-11-30T19:40:00.225Z,7.47
2022-11-30T19:43:33.556Z,7.43
2022-11-30T19:55:02.647Z,8.43
2022-11-30T19:58:53.539Z,8.48
2022-11-30T20:02:55.550Z,6.37
2022-11-30T20:06:34.918Z,6.78
2022-11-30T20:10:10.592Z,5.97
2022-11-30T20:17:40.800Z,6.37
2022-11-30T20:21:20.073Z,5.70
2022-11-30T20:24:58.211Z,6.37
2022-11-30T20:31:36.940Z,6.05
2022-11-30T20:35:21.638Z,4.93
2022-11-30T20:42:46.905Z,5.20
2022-11-30T20:46:01.957Z,5.97
2022-11-30T20:49:21.427Z,5.75
2022-11-30T20:52:54.508Z,5.20
2022-11-30T20:56:13.527Z,6.30
2022-11-30T20:59:45.809Z,5.00
2022-11-30T21:06:55.739Z,5.18
2022-11-30T21:10:14.395Z,5.50
2022-11-30T21:13:46.763Z,7.43
2022-11-30T21:16:58.657Z,5.87
2022-11-30T21:20:16.947Z,5.50
2022-11-30T21:23:39.848Z,5.05
2022-11-30T21:26:58.809Z,5.53
2022-11-30T21:30:40.031Z,4.20
2022-11-30T21:33:48.867Z,4.00
2022-11-30T21:36:56.524Z,5.03
2022-11-30T21:40:18.418Z,4.97
2022-11-30T21:43:51.809Z,3.85
2022-11-30T21:47:15.668Z,5.65
2022-11-30T21:50:47.124Z,6.00
2022-11-30T21:54:13.779Z,5.40
2022-11-30T21:57:31.830Z,4.25
2022-11-30T22:01:14.028Z,5.10
2022-11-30T22:04:45.671Z,4.68
2022-11-30T22:08:04.384Z,4.37
2022-11-30T22:11:27.323Z,4.57
2022-11-30T22:15:03.574Z,4.62
2022-11-30T22:18:21.916Z,4.60
2022-11-30T22:21:40.780Z,4.10
2022-11-30T22:25:08.095Z,4.20
2022-11-30T22:28:13.739Z,4.65
2022-11-30T22:31:36.239Z,3.97
2022-11-30T22:34:44.797Z,4.07
2022-11-30T22:38:24.324Z,3.92
2022-11-30T22:41:55.853Z,3.87
2022-11-30T22:45:12.019Z,3.35
2022-11-30T22:48:43.678Z,4.60
2022-11-30T22:52:00.552Z,3.65
2022-11-30T22:55:30.143Z,3.70
2022-11-30T22:58:57.133Z,3.45
2022-11-30T23:06:14.446Z,3.75
2022-11-30T23:09:32.956Z,3.90
2022-11-30T23:12:59.711Z,2.97
2022-11-30T23:16:25.746Z,4.28
2022-11-30T23:19:44.562Z,3.95
2022-11-30T23:23:01.823Z,5.00
2022-11-30T23:26:35.108Z,3.70
2022-11-30T23:30:05.578Z,2.80
2022-11-30T23:33:41.227Z,3.60
2022-11-30T23:37:21.839Z,3.20
2022-11-30T23:40:29.513Z,4.20
2022-11-30T23:44:11.358Z,4.40
2022-11-30T23:51:22.772Z,3.58
2022-11-30T23:54:50.606Z,4.80
2022-11-30T23:58:09.755Z,4.05
